createdAt,value
2023-03-12T00:00:34.441Z,978.84
2023-03-12T00:01:34.754Z,978.81
2023-03-12T00:02:34.511Z,978.83
2023-03-12T00:03:34.473Z,978.84
2023-03-12T00:04:34.413Z,978.77
2023-03-12T00:05:34.430Z,978.80
2023-03-12T00:06:34.396Z,978.75
2023-03-12T00:07:34.479Z,978.76
2023-03-12T00:08:34.580Z,978.73
2023-03-12T00:09:34.378Z,978.71
2023-03-12T00:10:34.339Z,978.74
2023-03-12T00:11:34.346Z,978.70
2023-03-12T00:12:34.295Z,978.73
2023-03-12T00:13:34.310Z,978.72
2023-03-12T00:14:34.277Z,978.72
2023-03-12T00:15:34.365Z,978.71
2023-03-12T00:16:34.280Z,978.73
2023-03-12T00:17:34.296Z,978.73
2023-03-12T00:18:34.234Z,978.72
2023-03-12T00:19:34.277Z,978.70
2023-03-12T00:20:34.207Z,978.69
2023-03-12T00:21:34.240Z,978.75
2023-03-12T00:22:34.236Z,978.77
2023-03-12T00:23:34.214Z,978.74
2023-03-12T00:24:34.170Z,978.73
2023-03-12T00:25:34.175Z,978.78
2023-03-12T00:26:34.164Z,978.73
2023-03-12T00:27:34.201Z,978.73
2023-03-12T00:28:34.132Z,978.74
2023-03-12T00:29:34.212Z,978.72
2023-03-12T00:30:34.099Z,978.66
2023-03-12T00:31:34.138Z,978.67
2023-03-12T00:32:34.112Z,978.64
2023-03-12T00:33:34.099Z,978.64
2023-03-12T00:34:34.353Z,978.63
2023-03-12T00:35:34.110Z,978.62
2023-03-12T00:36:34.039Z,978.61
2023-03-12T00:37:34.050Z,978.62
2023-03-12T00:38:34.010Z,978.63
2023-03-12T00:39:34.076Z,978.65
2023-03-12T00:40:34.106Z,978.64
2023-03-12T00:41:34.029Z,978.62
2023-03-12T00:42:33.981Z,978.64
2023-03-12T00:43:34.003Z,978.63
2023-03-12T00:44:34.028Z,978.59
2023-03-12T00:45:33.957Z,978.58
2023-03-12T00:46:33.966Z,978.54
2023-03-12T00:47:33.949Z,978.55
2023-03-12T00:48:33.911Z,978.55
2023-03-12T00:49:33.934Z,978.52
2023-03-12T00:50:33.907Z,978.54
2023-03-12T00:51:33.887Z,978.55
2023-03-12T00:52:33.858Z,978.54
2023-03-12T00:53:33.873Z,978.53
2023-03-12T00:54:33.877Z,978.58
2023-03-12T00:55:33.853Z,978.60
2023-03-12T00:56:33.823Z,978.57
2023-03-12T00:57:33.821Z,978.61
2023-03-12T00:58:33.805Z,978.58
2023-03-12T00:59:33.810Z,978.56
2023-03-12T01:00:33.833Z,978.59
2023-03-12T01:01:33.799Z,978.54
2023-03-12T01:02:33.763Z,978.52
2023-03-12T01:03:33.758Z,978.52
2023-03-12T01:04:33.789Z,978.52
2023-03-12T01:05:35.187Z,978.50
2023-03-12T01:06:33.755Z,978.51
2023-03-12T01:07:33.698Z,978.49
2023-03-12T01:08:33.716Z,978.47
2023-03-12T01:09:33.685Z,978.46
2023-03-12T01:10:33.790Z,978.43
2023-03-12T01:11:33.861Z,978.40
2023-03-12T01:12:33.664Z,978.43
2023-03-12T01:13:33.713Z,978.38
2023-03-12T01:14:33.646Z,978.43
2023-03-12T01:15:33.620Z,978.42
2023-03-12T01:16:33.879Z,978.38
2023-03-12T01:17:33.601Z,978.39
2023-03-12T01:18:33.620Z,978.34
2023-03-12T01:19:34.040Z,978.35
2023-03-12T01:20:33.582Z,978.33
2023-03-12T01:21:33.559Z,978.32
2023-03-12T01:22:33.608Z,978.30
2023-03-12T01:23:33.516Z,978.32
2023-03-12T01:24:33.605Z,978.33
2023-03-12T01:25:33.505Z,978.32
2023-03-12T01:26:33.519Z,978.32
2023-03-12T01:27:33.507Z,978.32
2023-03-12T01:28:33.496Z,978.27
2023-03-12T01:29:33.453Z,978.32
2023-03-12T01:30:33.496Z,978.31
2023-03-12T01:31:33.812Z,978.32
2023-03-12T01:32:33.472Z,978.34
2023-03-12T01:33:33.433Z,978.36
2023-03-12T01:34:33.468Z,978.37
2023-03-12T01:35:33.546Z,978.40
2023-03-12T01:36:33.794Z,978.42
2023-03-12T01:37:33.388Z,978.39
2023-03-12T01:38:33.377Z,978.44
2023-03-12T01:39:33.352Z,978.43
2023-03-12T01:40:33.359Z,978.44
2023-03-12T01:41:33.324Z,978.40
2023-03-12T01:42:33.337Z,978.42
2023-03-12T01:43:33.338Z,978.37
2023-03-12T01:44:33.339Z,978.41
2023-03-12T01:45:33.311Z,978.42
2023-03-12T01:46:33.281Z,978.37
2023-03-12T01:47:33.269Z,978.36
2023-03-12T01:48:33.277Z,978.39
2023-03-12T01:49:33.276Z,978.37
2023-03-12T01:50:33.262Z,978.33
2023-03-12T01:51:33.538Z,978.33
2023-03-12T01:52:33.233Z,978.33
2023-03-12T01:53:33.197Z,978.29
2023-03-12T01:54:33.216Z,978.33
2023-03-12T01:55:33.164Z,978.28
2023-03-12T01:56:33.685Z,978.25
2023-03-12T01:57:33.493Z,978.32
2023-03-12T01:58:33.201Z,978.31
2023-03-12T01:59:33.113Z,978.32
2023-03-12T02:00:33.164Z,978.26
2023-03-12T02:01:33.163Z,978.29
2023-03-12T02:02:33.115Z,978.27
2023-03-12T02:03:33.143Z,978.21
2023-03-12T02:04:33.094Z,978.25
2023-03-12T02:05:33.075Z,978.18
2023-03-12T02:06:33.085Z,978.19
2023-03-12T02:07:33.051Z,978.15
2023-03-12T02:08:33.043Z,978.10
2023-03-12T02:09:33.001Z,978.08
2023-03-12T02:10:33.041Z,978.09
2023-03-12T02:11:33.019Z,978.02
2023-03-12T02:12:33.036Z,978.02
2023-03-12T02:13:32.993Z,977.97
2023-03-12T02:14:32.988Z,977.95
2023-03-12T02:15:32.974Z,977.92
2023-03-12T02:16:32.962Z,977.92
2023-03-12T02:17:32.922Z,977.89
2023-03-12T02:18:32.943Z,977.90
2023-03-12T02:19:32.915Z,977.91
2023-03-12T02:20:32.949Z,977.87
2023-03-12T02:21:32.892Z,977.91
2023-03-12T02:22:32.962Z,977.84
2023-03-12T02:23:32.938Z,977.85
2023-03-12T02:24:32.873Z,977.87
2023-03-12T02:25:32.848Z,977.88
2023-03-12T02:26:32.867Z,977.90
2023-03-12T02:27:32.873Z,977.87
2023-03-12T02:28:32.841Z,977.84
2023-03-12T02:29:32.821Z,977.85
2023-03-12T02:30:32.812Z,977.87
2023-03-12T02:31:32.820Z,977.90
2023-03-12T02:32:33.000Z,977.92
2023-03-12T02:33:32.809Z,977.92
2023-03-12T02:34:32.780Z,977.86
2023-03-12T02:35:32.744Z,977.92
2023-03-12T02:36:32.754Z,977.89
2023-03-12T02:37:32.734Z,977.94
2023-03-12T02:38:32.775Z,977.85
2023-03-12T02:39:32.724Z,977.82
2023-03-12T02:40:32.743Z,977.80
2023-03-12T02:41:32.687Z,977.81
2023-03-12T02:42:32.678Z,977.81
2023-03-12T02:43:32.648Z,977.80
2023-03-12T02:44:32.674Z,977.76
2023-03-12T02:45:32.640Z,977.77
2023-03-12T02:46:32.659Z,977.75
2023-03-12T02:47:33.002Z,977.71
2023-03-12T02:48:32.619Z,977.71
2023-03-12T02:49:32.599Z,977.74
2023-03-12T02:50:32.594Z,977.70
2023-03-12T02:51:32.600Z,977.64
2023-03-12T02:52:32.599Z,977.62
2023-03-12T02:53:32.649Z,977.66
2023-03-12T02:54:32.548Z,977.61
2023-03-12T02:55:32.591Z,977.61
2023-03-12T02:56:32.787Z,977.63
2023-03-12T02:57:32.515Z,977.63
2023-03-12T02:58:32.499Z,977.60
2023-03-12T02:59:32.813Z,977.57
2023-03-12T03:00:32.496Z,977.59
2023-03-12T03:01:32.530Z,977.62
2023-03-12T03:02:32.480Z,977.62
2023-03-12T03:03:32.439Z,977.62
2023-03-12T03:04:32.485Z,977.58
2023-03-12T03:05:32.418Z,977.58
2023-03-12T03:06:32.452Z,977.62
2023-03-12T03:07:32.414Z,977.62
2023-03-12T03:08:32.435Z,977.64
2023-03-12T03:09:32.391Z,977.67
2023-03-12T03:10:32.402Z,977.66
2023-03-12T03:11:32.374Z,977.69
2023-03-12T03:12:32.695Z,977.71
2023-03-12T03:13:32.340Z,977.71
2023-03-12T03:14:32.343Z,977.68
2023-03-12T03:15:32.325Z,977.74
2023-03-12T03:16:32.332Z,977.69
2023-03-12T03:17:32.283Z,977.75
2023-03-12T03:18:32.342Z,977.77
2023-03-12T03:19:32.256Z,977.80
2023-03-12T03:20:32.287Z,977.77
2023-03-12T03:21:32.240Z,977.75
2023-03-12T03:22:32.263Z,977.77
2023-03-12T03:23:32.242Z,977.77
2023-03-12T03:24:32.227Z,977.75
2023-03-12T03:25:32.187Z,977.76
2023-03-12T03:26:32.218Z,977.77
2023-03-12T03:27:32.258Z,977.78
2023-03-12T03:28:32.245Z,977.76
2023-03-12T03:29:32.216Z,977.80
2023-03-12T03:30:32.194Z,977.77
2023-03-12T03:31:32.171Z,977.73
2023-03-12T03:32:32.163Z,977.68
2023-03-12T03:33:32.095Z,977.67
2023-03-12T03:34:32.128Z,977.66
2023-03-12T03:35:32.078Z,977.70
2023-03-12T03:36:32.077Z,977.60
2023-03-12T03:37:32.086Z,977.57
2023-03-12T03:38:32.075Z,977.56
2023-03-12T03:39:32.663Z,977.56
2023-03-12T03:40:32.078Z,977.57
2023-03-12T03:41:32.006Z,977.56
2023-03-12T03:42:32.045Z,977.59
2023-03-12T03:43:31.973Z,977.63
2023-03-12T03:44:32.004Z,977.65
2023-03-12T03:45:31.973Z,977.68
2023-03-12T03:46:32.051Z,977.67
2023-03-12T03:47:31.945Z,977.67
2023-03-12T03:48:31.967Z,977.70
2023-03-12T03:49:31.930Z,977.70
2023-03-12T03:50:31.963Z,977.71
2023-03-12T03:51:31.903Z,977.69
2023-03-12T03:52:32.248Z,977.72
2023-03-12T03:53:31.883Z,977.70
2023-03-12T03:54:31.897Z,977.61
2023-03-12T03:55:31.881Z,977.62
2023-03-12T03:56:31.904Z,977.58
2023-03-12T03:57:31.849Z,977.61
2023-03-12T03:58:31.871Z,977.62
2023-03-12T03:59:31.815Z,977.63
2023-03-12T04:00:31.821Z,977.55
2023-03-12T04:01:31.809Z,977.53
2023-03-12T04:02:31.817Z,977.52
2023-03-12T04:03:31.848Z,977.53
2023-03-12T04:04:31.779Z,977.52
2023-03-12T04:05:31.936Z,977.56
2023-03-12T04:06:31.758Z,977.52
2023-03-12T04:07:31.726Z,977.55
2023-03-12T04:08:31.728Z,977.58
2023-03-12T04:09:31.736Z,977.57
2023-03-12T04:10:31.717Z,977.58
2023-03-12T04:11:31.683Z,977.57
2023-03-12T04:12:31.719Z,977.58
2023-03-12T04:13:31.657Z,977.52
2023-03-12T04:14:31.670Z,977.44
2023-03-12T04:15:31.652Z,977.40
2023-03-12T04:16:31.640Z,977.40
2023-03-12T04:17:31.636Z,977.38
2023-03-12T04:18:31.625Z,977.43
2023-03-12T04:19:32.349Z,977.43
2023-03-12T04:20:31.623Z,977.33
2023-03-12T04:21:31.567Z,977.36
2023-03-12T04:22:31.577Z,977.34
2023-03-12T04:23:31.602Z,977.34
2023-03-12T04:24:31.566Z,977.35
2023-03-12T04:25:31.524Z,977.36
2023-03-12T04:26:31.573Z,977.34
2023-03-12T04:27:31.509Z,977.32
2023-03-12T04:28:31.515Z,977.33
2023-03-12T04:29:31.505Z,977.31
2023-03-12T04:30:31.503Z,977.33
2023-03-12T04:31:31.540Z,977.29
2023-03-12T04:32:32.074Z,977.30
2023-03-12T04:33:31.444Z,977.30
2023-03-12T04:34:31.473Z,977.32
2023-03-12T04:35:31.464Z,977.33
2023-03-12T04:36:31.439Z,977.24
2023-03-12T04:37:31.416Z,977.24
2023-03-12T04:38:31.404Z,977.26
2023-03-12T04:39:31.379Z,977.22
2023-03-12T04:40:31.413Z,977.22
2023-03-12T04:41:31.450Z,977.18
2023-03-12T04:42:31.401Z,977.19
2023-03-12T04:43:31.333Z,977.22
2023-03-12T04:44:31.376Z,977.15
2023-03-12T04:45:31.333Z,977.19
2023-03-12T04:46:31.347Z,977.20
2023-03-12T04:47:31.344Z,977.20
2023-03-12T04:48:31.324Z,977.17
2023-03-12T04:49:31.284Z,977.15
2023-03-12T04:50:31.305Z,977.15
2023-03-12T04:51:31.285Z,977.11
2023-03-12T04:52:31.303Z,977.13
2023-03-12T04:53:31.350Z,977.10
2023-03-12T04:54:31.692Z,977.14
2023-03-12T04:55:31.203Z,977.16
2023-03-12T04:56:31.234Z,977.16
2023-03-12T04:57:31.201Z,977.18
2023-03-12T04:58:31.228Z,977.19
2023-03-12T04:59:31.159Z,977.19
2023-03-12T05:00:31.183Z,977.22
2023-03-12T05:01:31.161Z,977.26
2023-03-12T05:02:31.211Z,977.20
2023-03-12T05:03:31.151Z,977.22
2023-03-12T05:04:33.538Z,977.20
2023-03-12T05:05:31.110Z,977.20
2023-03-12T05:06:31.114Z,977.22
2023-03-12T05:07:31.125Z,977.21
2023-03-12T05:08:31.127Z,977.22
2023-03-12T05:09:31.061Z,977.18
2023-03-12T05:10:31.084Z,977.17
2023-03-12T05:11:31.028Z,977.13
2023-03-12T05:12:31.068Z,977.14
2023-03-12T05:13:31.589Z,977.15
2023-03-12T05:14:31.396Z,977.15
2023-03-12T05:15:30.987Z,977.18
2023-03-12T05:16:31.069Z,977.19
2023-03-12T05:17:30.968Z,977.17
2023-03-12T05:18:30.976Z,977.17
2023-03-12T05:19:31.000Z,977.13
2023-03-12T05:20:31.219Z,977.07
2023-03-12T05:21:30.950Z,977.04
2023-03-12T05:22:30.928Z,977.00
2023-03-12T05:23:30.908Z,977.07
2023-03-12T05:24:30.871Z,977.02
2023-03-12T05:25:30.906Z,976.97
2023-03-12T05:26:30.880Z,976.97
2023-03-12T05:27:31.951Z,976.96
2023-03-12T05:28:30.852Z,976.94
2023-03-12T05:29:30.894Z,976.92
2023-03-12T05:30:30.831Z,976.95
2023-03-12T05:31:30.883Z,977.00
2023-03-12T05:32:30.846Z,976.97
2023-03-12T05:33:30.821Z,976.96
2023-03-12T05:34:30.782Z,976.99
2023-03-12T05:35:30.820Z,976.98
2023-03-12T05:36:30.767Z,976.97
2023-03-12T05:37:30.776Z,977.00
2023-03-12T05:38:30.755Z,976.94
2023-03-12T05:39:30.749Z,976.96
2023-03-12T05:40:30.702Z,976.98
2023-03-12T05:41:30.807Z,976.98
2023-03-12T05:42:30.701Z,976.97
2023-03-12T05:43:30.692Z,976.98
2023-03-12T05:44:30.681Z,977.01
2023-03-12T05:45:30.724Z,976.97
2023-03-12T05:46:30.646Z,976.97
2023-03-12T05:47:30.683Z,977.04
2023-03-12T05:48:30.633Z,977.00
2023-03-12T05:49:30.639Z,976.97
2023-03-12T05:50:30.634Z,977.00
2023-03-12T05:51:30.609Z,977.01
2023-03-12T05:52:30.600Z,976.98
2023-03-12T05:53:30.600Z,976.95
2023-03-12T05:54:30.568Z,976.96
2023-03-12T05:55:30.575Z,976.86
2023-03-12T05:56:30.541Z,976.86
2023-03-12T05:57:30.547Z,976.83
2023-03-12T05:58:30.525Z,976.89
2023-03-12T05:59:30.535Z,976.88
2023-03-12T06:00:30.501Z,976.86
2023-03-12T06:01:30.514Z,976.81
2023-03-12T06:02:30.830Z,976.81
2023-03-12T06:03:30.642Z,976.82
2023-03-12T06:04:30.454Z,976.75
2023-03-12T06:05:30.476Z,976.75
2023-03-12T06:06:30.437Z,976.72
2023-03-12T06:07:30.435Z,976.73
2023-03-12T06:08:30.402Z,976.71
2023-03-12T06:09:30.431Z,976.72
2023-03-12T06:10:30.400Z,976.70
2023-03-12T06:11:30.399Z,976.63
2023-03-12T06:12:30.375Z,976.55
2023-03-12T06:13:30.560Z,976.55
2023-03-12T06:14:30.359Z,976.51
2023-03-12T06:15:30.362Z,976.50
2023-03-12T06:16:30.370Z,976.53
2023-03-12T06:17:30.332Z,976.52
2023-03-12T06:18:30.299Z,976.53
2023-03-12T06:19:30.300Z,976.55
2023-03-12T06:20:30.304Z,976.49
2023-03-12T06:21:30.832Z,976.49
2023-03-12T06:22:30.410Z,976.49
2023-03-12T06:23:30.259Z,976.50
2023-03-12T06:24:30.238Z,976.47
2023-03-12T06:25:30.245Z,976.53
2023-03-12T06:26:30.215Z,976.50
2023-03-12T06:27:30.263Z,976.46
2023-03-12T06:28:30.194Z,976.41
2023-03-12T06:29:30.196Z,976.40
2023-03-12T06:30:30.151Z,976.47
2023-03-12T06:31:30.206Z,976.44
2023-03-12T06:32:30.213Z,976.52
2023-03-12T06:33:30.146Z,976.47
2023-03-12T06:34:30.120Z,976.47
2023-03-12T06:35:30.239Z,976.52
2023-03-12T06:36:30.099Z,976.53
2023-03-12T06:37:30.106Z,976.51
2023-03-12T06:38:30.078Z,976.44
2023-03-12T06:39:30.088Z,976.40
2023-03-12T06:40:30.054Z,976.37
2023-03-12T06:41:30.066Z,976.32
2023-03-12T06:42:30.054Z,976.30
2023-03-12T06:43:30.665Z,976.28
2023-03-12T06:44:30.036Z,976.23
2023-03-12T06:45:30.036Z,976.28
2023-03-12T06:46:30.062Z,976.34
2023-03-12T06:47:29.984Z,976.34
2023-03-12T06:48:29.999Z,976.32
2023-03-12T06:49:29.987Z,976.21
2023-03-12T06:50:29.943Z,976.18
2023-03-12T06:51:29.980Z,976.16
2023-03-12T06:52:29.914Z,976.18
2023-03-12T06:53:29.924Z,976.16
2023-03-12T06:54:29.908Z,976.18
2023-03-12T06:55:29.922Z,976.17
2023-03-12T06:56:29.903Z,976.15
2023-03-12T06:57:29.882Z,976.16
2023-03-12T06:58:29.851Z,976.12
2023-03-12T06:59:29.896Z,976.17
2023-03-12T07:00:29.836Z,976.12
2023-03-12T07:01:29.853Z,976.19
2023-03-12T07:02:29.839Z,976.23
2023-03-12T07:03:29.825Z,976.31
2023-03-12T07:04:29.810Z,976.33
2023-03-12T07:05:30.223Z,976.34
2023-03-12T07:06:29.774Z,976.31
2023-03-12T07:07:29.778Z,976.33
2023-03-12T07:08:29.742Z,976.36
2023-03-12T07:09:29.769Z,976.34
2023-03-12T07:10:29.736Z,976.34
2023-03-12T07:11:29.767Z,976.25
2023-03-12T07:12:29.725Z,976.23
2023-03-12T07:13:29.720Z,976.27
2023-03-12T07:14:29.681Z,976.28
2023-03-12T07:15:29.700Z,976.27
2023-03-12T07:16:30.046Z,976.28
2023-03-12T07:17:29.668Z,976.29
2023-03-12T07:18:29.629Z,976.34
2023-03-12T07:19:29.668Z,976.34
2023-03-12T07:20:29.615Z,976.33
2023-03-12T07:21:29.627Z,976.46
2023-03-12T07:22:29.614Z,976.46
2023-03-12T07:23:29.609Z,976.47
2023-03-12T07:24:29.728Z,976.48
2023-03-12T07:25:29.678Z,976.56
2023-03-12T07:26:29.966Z,976.50
2023-03-12T07:27:29.568Z,976.49
2023-03-12T07:28:29.547Z,976.54
2023-03-12T07:29:29.536Z,976.53
2023-03-12T07:30:29.510Z,976.49
2023-03-12T07:31:29.565Z,976.48
2023-03-12T07:32:29.524Z,976.44
2023-03-12T07:33:29.672Z,976.38
2023-03-12T07:34:29.565Z,976.43
2023-03-12T07:35:29.598Z,976.40
2023-03-12T07:36:29.549Z,976.39
2023-03-12T07:37:29.466Z,976.39
2023-03-12T07:38:29.479Z,976.36
2023-03-12T07:39:29.443Z,976.27
2023-03-12T07:40:29.423Z,976.30
2023-03-12T07:41:29.510Z,976.27
2023-03-12T07:42:29.449Z,976.26
2023-03-12T07:43:29.472Z,976.26
2023-03-12T07:44:29.453Z,976.29
2023-03-12T07:45:29.401Z,976.31
2023-03-12T07:46:29.362Z,976.34
2023-03-12T07:47:29.568Z,976.34
2023-03-12T07:48:29.307Z,976.37
2023-03-12T07:49:29.330Z,976.39
2023-03-12T07:50:29.446Z,976.37
2023-03-12T07:51:29.323Z,976.37
2023-03-12T07:52:29.349Z,976.35
2023-03-12T07:53:29.259Z,976.32
2023-03-12T07:54:29.282Z,976.33
2023-03-12T07:55:29.245Z,976.26
2023-03-12T07:56:29.240Z,976.31
2023-03-12T07:57:29.245Z,976.28
2023-03-12T07:58:29.278Z,976.26
2023-03-12T07:59:29.195Z,976.28
2023-03-12T08:00:29.316Z,976.29
2023-03-12T08:01:29.218Z,976.29
2023-03-12T08:02:29.242Z,976.34
2023-03-12T08:03:29.373Z,976.35
2023-03-12T08:04:29.249Z,976.38
2023-03-12T08:05:29.201Z,976.41
2023-03-12T08:06:29.119Z,976.40
2023-03-12T08:07:29.163Z,976.43
2023-03-12T08:08:29.148Z,976.38
2023-03-12T08:09:29.099Z,976.39
2023-03-12T08:10:29.190Z,976.40
2023-03-12T08:11:29.098Z,976.39
2023-03-12T08:12:29.162Z,976.43
2023-03-12T08:13:29.146Z,976.41
2023-03-12T08:14:29.032Z,976.39
2023-03-12T08:15:29.034Z,976.39
2023-03-12T08:16:29.004Z,976.35
2023-03-12T08:17:29.071Z,976.33
2023-03-12T08:18:28.974Z,976.37
2023-03-12T08:19:29.000Z,976.37
2023-03-12T08:20:29.020Z,976.36
2023-03-12T08:21:28.958Z,976.36
2023-03-12T08:22:28.980Z,976.36
2023-03-12T08:23:28.944Z,976.36
2023-03-12T08:24:28.911Z,976.34
2023-03-12T08:25:29.133Z,976.31
2023-03-12T08:26:28.892Z,976.30
2023-03-12T08:27:28.895Z,976.23
2023-03-12T08:28:28.892Z,976.14
2023-03-12T08:29:28.884Z,976.20
2023-03-12T08:30:30.291Z,976.20
2023-03-12T08:31:28.897Z,976.26
2023-03-12T08:32:28.933Z,976.23
2023-03-12T08:33:28.878Z,976.20
2023-03-12T08:34:28.791Z,976.16
2023-03-12T08:35:28.907Z,976.20
2023-03-12T08:36:28.763Z,976.19
2023-03-12T08:37:28.796Z,976.22
2023-03-12T08:38:28.760Z,976.25
2023-03-12T08:39:28.757Z,976.23
2023-03-12T08:40:28.851Z,976.24
2023-03-12T08:41:28.759Z,976.21
2023-03-12T08:42:28.694Z,976.28
2023-03-12T08:43:29.538Z,976.27
2023-03-12T08:44:28.877Z,976.33
2023-03-12T08:45:28.879Z,976.35
2023-03-12T08:46:28.652Z,976.32
2023-03-12T08:47:28.670Z,976.30
2023-03-12T08:48:28.652Z,976.30
2023-03-12T08:49:28.717Z,976.24
2023-03-12T08:50:28.676Z,976.26
2023-03-12T08:51:28.631Z,976.29
2023-03-12T08:52:28.584Z,976.26
2023-03-12T08:53:28.614Z,976.20
2023-03-12T08:54:28.576Z,976.19
2023-03-12T08:55:28.596Z,976.25
2023-03-12T08:56:28.576Z,976.18
2023-03-12T08:57:28.554Z,976.19
2023-03-12T08:58:28.625Z,976.20
2023-03-12T08:59:28.541Z,976.14
2023-03-12T09:00:28.508Z,976.18
2023-03-12T09:01:29.565Z,976.19
2023-03-12T09:02:28.521Z,976.23
2023-03-12T09:03:28.600Z,976.22
2023-03-12T09:04:28.844Z,976.23
2023-03-12T09:05:28.475Z,976.21
2023-03-12T09:06:28.518Z,976.15
2023-03-12T09:07:28.477Z,976.13
2023-03-12T09:08:28.419Z,976.11
2023-03-12T09:09:28.425Z,976.09
2023-03-12T09:10:30.969Z,976.08
2023-03-12T09:11:28.410Z,976.09
2023-03-12T09:12:28.391Z,976.10
2023-03-12T09:13:45.247Z,976.12
2023-03-12T09:15:01.596Z,976.10
2023-03-12T09:15:29.372Z,976.12
2023-03-12T09:16:28.371Z,976.08
2023-03-12T09:17:28.346Z,976.10
2023-03-12T09:18:28.296Z,976.11
2023-03-12T09:19:28.593Z,976.14
2023-03-12T09:20:28.288Z,976.13
2023-03-12T09:21:28.291Z,976.11
2023-03-12T09:22:28.286Z,976.11
2023-03-12T09:23:28.293Z,976.13
2023-03-12T09:24:28.269Z,976.15
2023-03-12T09:25:28.239Z,976.18
2023-03-12T09:26:28.833Z,976.18
2023-03-12T09:27:28.238Z,976.15
2023-03-12T09:28:28.228Z,976.18
2023-03-12T09:29:28.346Z,976.21
2023-03-12T09:30:28.298Z,976.23
2023-03-12T09:31:28.165Z,976.18
2023-03-12T09:32:28.170Z,976.23
2023-03-12T09:33:28.491Z,976.23
2023-03-12T09:34:28.173Z,976.18
2023-03-12T09:35:28.122Z,976.14
2023-03-12T09:36:28.152Z,976.13
2023-03-12T09:37:28.098Z,976.06
2023-03-12T09:38:28.108Z,976.07
2023-03-12T09:39:28.423Z,976.07
2023-03-12T09:40:28.074Z,976.05
2023-03-12T09:41:28.048Z,976.01
2023-03-12T09:42:28.047Z,976.02
2023-03-12T09:43:28.017Z,976.00
2023-03-12T09:44:28.061Z,975.99
2023-03-12T09:45:28.003Z,976.01
2023-03-12T09:46:28.058Z,975.95
2023-03-12T09:47:27.973Z,975.94
2023-03-12T09:48:27.999Z,975.93
2023-03-12T09:49:27.943Z,975.98
2023-03-12T09:50:28.048Z,975.95
2023-03-12T09:51:27.923Z,976.01
2023-03-12T09:52:27.939Z,976.01
2023-03-12T09:53:27.919Z,975.94
2023-03-12T09:54:27.931Z,975.98
2023-03-12T09:55:27.901Z,975.98
2023-03-12T09:56:27.914Z,975.98
2023-03-12T09:57:27.871Z,976.02
2023-03-12T09:58:27.873Z,976.04
2023-03-12T09:59:27.858Z,976.03
2023-03-12T10:00:27.887Z,975.99
2023-03-12T10:01:28.352Z,976.05
2023-03-12T10:02:27.851Z,976.03
2023-03-12T10:03:27.845Z,976.04
2023-03-12T10:04:27.831Z,976.07
2023-03-12T10:05:27.946Z,976.04
2023-03-12T10:06:27.800Z,976.04
2023-03-12T10:07:27.999Z,976.04
2023-03-12T10:08:28.877Z,976.01
2023-03-12T10:09:27.747Z,976.06
2023-03-12T10:10:27.753Z,975.99
2023-03-12T10:11:27.722Z,976.00
2023-03-12T10:12:27.777Z,976.01
2023-03-12T10:13:27.699Z,975.98
2023-03-12T10:14:27.714Z,975.96
2023-03-12T10:15:27.718Z,975.94
2023-03-12T10:16:27.691Z,975.98
2023-03-12T10:17:27.643Z,976.01
2023-03-12T10:18:27.789Z,975.95
2023-03-12T10:19:27.663Z,975.93
2023-03-12T10:20:27.772Z,975.97
2023-03-12T10:21:27.612Z,975.98
2023-03-12T10:22:27.617Z,975.94
2023-03-12T10:23:27.584Z,975.95
2023-03-12T10:24:27.592Z,975.92
2023-03-12T10:25:27.603Z,975.95
2023-03-12T10:26:27.612Z,975.97
2023-03-12T10:27:27.812Z,975.97
2023-03-12T10:28:27.834Z,976.03
2023-03-12T10:29:27.518Z,975.99
2023-03-12T10:30:27.592Z,976.00
2023-03-12T10:31:27.514Z,976.02
2023-03-12T10:32:27.548Z,976.01
2023-03-12T10:33:27.493Z,975.97
2023-03-12T10:34:27.532Z,976.00
2023-03-12T10:35:27.467Z,976.00
2023-03-12T10:36:27.457Z,975.95
2023-03-12T10:37:27.435Z,975.97
2023-03-12T10:38:27.462Z,975.95
2023-03-12T10:39:27.415Z,975.97
2023-03-12T10:40:27.449Z,975.98
2023-03-12T10:41:27.428Z,976.02
2023-03-12T10:42:27.408Z,975.99
2023-03-12T10:43:27.404Z,975.98
2023-03-12T10:44:27.399Z,975.95
2023-03-12T10:45:27.348Z,975.98
2023-03-12T10:46:27.380Z,975.98
2023-03-12T10:47:27.320Z,976.00
2023-03-12T10:48:27.351Z,976.01
2023-03-12T10:49:27.300Z,976.03
2023-03-12T10:50:27.351Z,976.01
2023-03-12T10:51:27.271Z,976.00
2023-03-12T10:52:27.288Z,976.00
2023-03-12T10:53:29.653Z,976.03
2023-03-12T10:54:27.263Z,976.06
2023-03-12T10:55:27.232Z,975.98
2023-03-12T10:56:27.261Z,976.01
2023-03-12T10:57:27.218Z,976.00
2023-03-12T10:58:27.219Z,975.98
2023-03-12T10:59:27.217Z,975.98
2023-03-12T11:00:27.202Z,976.00
2023-03-12T11:01:27.190Z,975.97
2023-03-12T11:02:27.167Z,975.98
2023-03-12T11:03:27.170Z,975.99
2023-03-12T11:04:29.955Z,975.97
2023-03-12T11:05:27.108Z,975.98
2023-03-12T11:06:27.131Z,976.04
2023-03-12T11:07:27.107Z,975.96
2023-03-12T11:08:27.226Z,975.97
2023-03-12T11:09:27.176Z,975.97
2023-03-12T11:10:27.137Z,976.00
2023-03-12T11:11:27.037Z,976.02
2023-03-12T11:12:27.046Z,976.07
2023-03-12T11:13:27.033Z,976.05
2023-03-12T11:14:27.068Z,976.06
2023-03-12T11:15:27.089Z,976.08
2023-03-12T11:16:27.179Z,976.07
2023-03-12T11:17:26.968Z,976.04
2023-03-12T11:18:27.016Z,976.06
2023-03-12T11:19:26.974Z,976.10
2023-03-12T11:20:26.981Z,976.07
2023-03-12T11:21:26.941Z,976.10
2023-03-12T11:22:26.956Z,976.09
2023-03-12T11:23:26.953Z,976.11
2023-03-12T11:24:26.935Z,976.11
2023-03-12T11:25:26.921Z,976.09
2023-03-12T11:26:26.917Z,976.06
2023-03-12T11:27:26.853Z,976.11
2023-03-12T11:28:26.911Z,976.11
2023-03-12T11:29:27.001Z,976.12
2023-03-12T11:30:26.940Z,976.13
2023-03-12T11:31:26.847Z,976.12
2023-03-12T11:32:26.831Z,976.12
2023-03-12T11:33:26.794Z,976.11
2023-03-12T11:34:26.795Z,976.04
2023-03-12T11:35:26.850Z,976.10
2023-03-12T11:36:26.809Z,976.07
2023-03-12T11:37:26.748Z,976.05
2023-03-12T11:38:26.753Z,976.03
2023-03-12T11:39:26.769Z,976.01
2023-03-12T11:40:26.762Z,976.01
2023-03-12T11:41:26.715Z,976.03
2023-03-12T11:42:26.740Z,976.03
2023-03-12T11:43:41.994Z,975.98
2023-03-12T11:44:27.674Z,975.98
2023-03-12T11:45:26.658Z,975.93
2023-03-12T11:46:26.711Z,975.94
2023-03-12T11:47:26.692Z,975.96
2023-03-12T11:48:26.693Z,975.97
2023-03-12T11:49:26.661Z,975.92
2023-03-12T11:50:26.615Z,975.96
2023-03-12T11:51:26.592Z,975.97
2023-03-12T11:52:26.610Z,975.98
2023-03-12T11:53:26.576Z,975.99
2023-03-12T11:54:26.886Z,976.03
2023-03-12T11:55:26.524Z,976.01
2023-03-12T11:56:26.556Z,975.97
2023-03-12T11:57:26.556Z,975.97
2023-03-12T11:58:27.482Z,975.90
2023-03-12T11:59:30.251Z,975.92
2023-03-12T12:00:26.775Z,975.89
2023-03-12T12:01:26.801Z,975.91
2023-03-12T12:02:26.896Z,975.91
2023-03-12T12:03:26.867Z,975.84
2023-03-12T12:04:26.547Z,975.87
2023-03-12T12:05:26.457Z,975.85
2023-03-12T12:06:26.433Z,975.87
2023-03-12T12:07:26.422Z,975.86
2023-03-12T12:08:26.426Z,975.83
2023-03-12T12:09:26.400Z,975.86
2023-03-12T12:10:27.896Z,975.84
2023-03-12T12:11:26.384Z,975.83
2023-03-12T12:12:26.405Z,975.90
2023-03-12T12:13:26.394Z,975.88
2023-03-12T12:14:26.365Z,975.88
2023-03-12T12:15:26.335Z,975.86
2023-03-12T12:16:26.438Z,975.89
2023-03-12T12:17:26.322Z,975.88
2023-03-12T12:18:26.329Z,975.89
2023-03-12T12:19:26.266Z,975.86
2023-03-12T12:20:26.466Z,975.86
2023-03-12T12:21:26.404Z,975.85
2023-03-12T12:22:26.470Z,975.75
2023-03-12T12:23:26.260Z,975.76
2023-03-12T12:24:26.265Z,975.79
2023-03-12T12:25:26.259Z,975.80
2023-03-12T12:26:27.082Z,975.83
2023-03-12T12:27:26.206Z,975.78
2023-03-12T12:28:26.241Z,975.76